• Join FlightAware (Why Join?)
  • Login
  • US Flag 
08:35PM EDT


 

Airport Tracker/Info


-or-


 

Live Flight TrackerFlight Track Log ✈ KAP927 ✈ 05-Jun-2013 ✈ KBOS - KALB

Flight Track Log - Related Links

Times and Time Zones

All times are in EDT time to prevent confusion due to time zone crossing. See the KAP927 flight status page for this flight to view local times or setup timezone preferences in your user account.

Time Position Orientation Groundspeed Altitude Reporting Facility
EDT Latitude Longitude Course Direction KTS MPH feet Rate Location/Type
01:27PM 42.3833 -71.0000 270° West 118 136 500  Level KA90
01:28PM 42.3833 -71.0500 270° West 105 121 1,800 720 Climbing KA90
01:29PM 42.3833 -71.0833 270° West 129 148 2,200 300 Climbing KA90
01:30PM 42.3833 -71.1500 270° West 126 145 2,500 360 Climbing KA90
01:31PM 42.3833 -71.1833 270° West 129 148 3,000 360 Climbing KA90
01:32PM 42.3833 -71.2333 270° West 130 150 3,200 360 Climbing KA90
01:33PM 42.4000 -71.2833 294° West 125 144 3,800 480 Climbing KA90
01:34PM 42.4000 -71.3333 270° West 124 143 4,300 420 Climbing KA90
01:35PM 42.4167 -71.3833 294° West 131 151 4,800 420 Climbing KA90
01:37PM 42.4275 -71.4528 282° West 142 163 5,500 420 Climbing Boston Center
01:38PM 42.4319 -71.5089 276° West 142 163 6,000 540 Climbing Boston Center
01:39PM 42.4367 -71.5625 277° West 132 152 6,800 540 Climbing Boston Center
01:40PM 42.4433 -71.6131 280° West 127 146 7,300 420 Climbing Boston Center
01:41PM 42.4539 -71.6494 291° West 121 139 7,700 420 Climbing Boston Center
01:42PM 42.4625 -71.7000 283° West 126 145 8,200 360 Climbing Boston Center
01:43PM 42.4711 -71.7447 285° West 126 145 8,500 180 Climbing Boston Center
01:44PM 42.4758 -71.8011 276° West 134 154 8,600  Climbing Boston Center
01:45PM 42.4822 -71.8517 280° West 146 168 8,600  Level Boston Center
01:46PM 42.4908 -71.9081 282° West 146 168 8,600  Level Boston Center
01:47PM 42.4972 -71.9586 280° West 146 168 8,600  Level Boston Center
01:48PM 42.5081 -72.0175 284° West 146 168 8,600  Level Boston Center
01:49PM 42.5144 -72.0683 280° West 146 168 8,600  Level Boston Center
01:50PM 42.5231 -72.1275 281° West 146 168 8,600  Level Boston Center
01:51PM 42.5294 -72.1753 280° West 146 168 8,600  Level Boston Center
01:52PM 42.5397 -72.2344 283° West 146 168 8,600  Level Boston Center
01:53PM 42.5461 -72.2850 280° West 146 168 8,600  Level Boston Center
01:54PM 42.5544 -72.3358 283° West 146 168 8,600  Level Boston Center
01:55PM 42.5608 -72.3922 279° West 146 168 8,600 -60 Level Boston Center
01:56PM 42.5692 -72.4514 281° West 146 168 8,500  Descending Boston Center
01:57PM 42.5775 -72.5050 282° West 146 168 8,600  Climbing Boston Center
01:58PM 42.5858 -72.5586 282° West 146 168 8,600  Level Boston Center
01:59PM 42.5919 -72.6122 279° West 146 168 8,600  Level Boston Center
02:00PM 42.5981 -72.6628 279° West 137 158 8,600  Level Boston Center
02:01PM 42.6083 -72.7194 284° West 148 170 8,600  Level Boston Center
02:02PM 42.6103 -72.7786 273° West 153 176 8,600  Level Boston Center
02:02PM 42.6167 -72.7983 294° West 154 177 8,600  Level Boston Center
02:03PM 42.6247 -72.8350 287° West 159 183 8,600  Level Boston Center
02:03PM 42.6228 -72.8547 262° West 153 176 8,600  Level Boston Center
02:04PM 42.6308 -72.8917 287° West 159 183 8,600  Level Boston Center
02:04PM 42.6308 -72.9086 270° West 151 174 8,600  Level Boston Center
02:05PM 42.6411 -72.9536 287° West 159 183 8,600  Level Boston Center
02:05PM 42.6408 -72.9706 269° West 152 175 8,600  Level Boston Center
02:06PM 42.6450 -73.0075 279° West 159 183 8,600  Level Boston Center
02:06PM 42.6469 -73.0272 278° West 152 175 8,600  Level Boston Center
02:07PM 42.6531 -73.0667 282° West 159 183 8,600  Level Boston Center
02:07PM 42.6528 -73.0864 269° West 156 180 8,600 -120 Level Boston Center
02:08PM 42.6589 -73.1233 283° West 159 183 8,500 -420 Descending Boston Center
02:08PM 42.6628 -73.1431 285° West 156 180 8,200 -840 Descending Boston Center
02:09PM 42.6667 -73.1883 277° West 172 198 7,700 -720 Descending Boston Center
02:09PM 42.6708 -73.2111 284° West 179 206 7,500 -540 Descending Boston Center
02:10PM 42.6767 -73.2533 281° West 177 204 7,200 -600 Descending Boston Center
02:10PM 42.6786 -73.2789 276° West 187 215 6,900 -720 Descending Boston Center
02:11PM 42.6867 -73.3214 284° West 182 209 6,500 -600 Descending Boston Center
02:11PM 42.6928 -73.3469 288° West 183 211 6,300 -540 Descending Boston Center
02:12PM 42.6944 -73.3892 273° West 182 209 6,000 -720 Descending Boston Center
02:12PM 42.7006 -73.4175 286° West 181 208 5,600 -1,020 Descending Boston Center
02:13PM 42.7000 -73.4600 269° West 182 209 5,000 -900 Descending Boston Center
02:13PM 42.7039 -73.4883 281° West 189 217 4,700 -600 Descending Boston Center
02:14PM 42.7017 -73.5222 265° West 182 209 4,400 -600 Descending Boston Center
02:14PM 42.7014 -73.5561 269° West 180 207 4,100 -720 Descending Boston Center
02:15PM 42.7008 -73.5956 269° West 177 204 3,700 -840 Descending Boston Center
02:15PM 42.7006 -73.6239 269° West 175 201 3,300 -720 Descending Boston Center
02:16PM 42.7003 -73.6606 269° West 177 204 3,000 -300 Descending Boston Center
02:16PM 42.6958 -73.6886 258° West 171 197 3,000 -660 Level Boston Center
02:17PM 42.6908 -73.7450 263° West 145 167 2,100 -960 Descending Boston Center
02:18PM 42.7028 -73.7961 288° West 139 160 1,100 -1,020 Descending Boston Center
02:20PM 42.7333 -73.8000 270° West  Level FlightAware Approximate
02:27PM 42.7491 -73.8020 270° West  Level Estimated
02:28PM 42.7491 -73.8020 270° West  Level Estimated
02:29PM 42.7491 -73.8020 270° West  Level Estimated
02:30PM 42.7491 -73.8020 270° West  Level Estimated